createdAt,value
2019-05-14T00:00:41.656Z,1019.66
2019-05-14T00:01:41.977Z,1019.73
2019-05-14T00:02:41.340Z,1019.78
2019-05-14T00:03:41.333Z,1019.73
2019-05-14T00:04:39.503Z,1019.77
2019-05-14T00:05:39.626Z,1019.80
2019-05-14T00:06:41.586Z,1019.82
2019-05-14T00:07:41.426Z,1019.77
2019-05-14T00:08:41.645Z,1019.81
2019-05-14T00:09:41.316Z,1019.79
2019-05-14T00:10:41.191Z,1019.84
2019-05-14T00:11:41.852Z,1019.83
2019-05-14T00:12:41.692Z,1019.83
2019-05-14T00:13:41.194Z,1019.87
2019-05-14T00:14:40.354Z,1019.85
2019-05-14T00:15:41.383Z,1019.87
2019-05-14T00:16:39.405Z,1019.89
2019-05-14T00:17:41.576Z,1019.86
2019-05-14T00:18:41.771Z,1019.80
2019-05-14T00:19:41.350Z,1019.86
2019-05-14T00:20:41.782Z,1019.80
2019-05-14T00:21:39.320Z,1019.88
2019-05-14T00:22:41.506Z,1019.84
2019-05-14T00:23:47.446Z,1019.75
2019-05-14T00:24:41.318Z,1019.72
2019-05-14T00:25:41.758Z,1019.68
2019-05-14T00:26:39.254Z,1019.70
2019-05-14T00:27:41.277Z,1019.68
2019-05-14T00:28:39.229Z,1019.74
2019-05-14T00:29:41.455Z,1019.68
2019-05-14T00:30:39.243Z,1019.66
2019-05-14T00:31:39.202Z,1019.76
2019-05-14T00:32:41.448Z,1019.76
2019-05-14T00:33:39.240Z,1019.75
2019-05-14T00:34:39.166Z,1019.78
2019-05-14T00:35:41.219Z,1019.76
2019-05-14T00:36:41.407Z,1019.77
2019-05-14T00:37:41.282Z,1019.76
2019-05-14T00:38:39.163Z,1019.76
2019-05-14T00:39:41.326Z,1019.76
2019-05-14T00:40:39.103Z,1019.79
2019-05-14T00:41:39.111Z,1019.77
2019-05-14T00:42:41.439Z,1019.80
2019-05-14T00:43:41.443Z,1019.84
2019-05-14T00:44:51.681Z,1019.81
2019-05-14T00:45:41.791Z,1019.76
2019-05-14T00:46:40.972Z,1019.78
2019-05-14T00:47:41.560Z,1019.77
2019-05-14T00:48:39.072Z,1019.77
2019-05-14T00:49:39.004Z,1019.88
2019-05-14T00:50:39.000Z,1019.73
2019-05-14T00:51:41.147Z,1019.79
2019-05-14T00:52:38.978Z,1019.74
2019-05-14T00:53:38.965Z,1019.77
2019-05-14T00:54:41.413Z,1019.78
2019-05-14T00:55:45.928Z,1019.71
2019-05-14T00:56:38.935Z,1019.75
2019-05-14T00:57:38.922Z,1019.79
2019-05-14T00:58:38.910Z,1019.75
2019-05-14T00:59:38.957Z,1019.73
2019-05-14T01:00:38.889Z,1019.73
2019-05-14T01:01:38.873Z,1019.73
2019-05-14T01:02:41.343Z,1019.71
2019-05-14T01:03:38.852Z,1019.75
2019-05-14T01:04:38.859Z,1019.74
2019-05-14T01:05:41.240Z,1019.70
2019-05-14T01:06:38.836Z,1019.78
2019-05-14T01:07:38.829Z,1019.77
2019-05-14T01:08:41.184Z,1019.68
2019-05-14T01:09:38.793Z,1019.72
2019-05-14T01:10:38.785Z,1019.68
2019-05-14T01:11:38.781Z,1019.68
2019-05-14T01:12:41.231Z,1019.73
2019-05-14T01:13:38.745Z,1019.67
2019-05-14T01:14:38.747Z,1019.67
2019-05-14T01:15:38.725Z,1019.72
2019-05-14T01:16:38.730Z,1019.80
2019-05-14T01:17:38.708Z,1019.75
2019-05-14T01:18:38.701Z,1019.67
2019-05-14T01:19:38.692Z,1019.72
2019-05-14T01:20:41.079Z,1019.68
2019-05-14T01:21:38.735Z,1019.59
2019-05-14T01:22:38.648Z,1019.65
2019-05-14T01:23:38.647Z,1019.61
2019-05-14T01:24:38.638Z,1019.62
2019-05-14T01:25:38.625Z,1019.65
2019-05-14T01:26:38.608Z,1019.60
2019-05-14T01:27:47.515Z,1019.64
2019-05-14T01:28:38.587Z,1019.61
2019-05-14T01:29:38.576Z,1019.64
2019-05-14T01:30:38.565Z,1019.54
2019-05-14T01:31:38.553Z,1019.58
2019-05-14T01:32:38.592Z,1019.62
2019-05-14T01:33:41.056Z,1019.61
2019-05-14T01:34:38.535Z,1019.60
2019-05-14T01:35:38.520Z,1019.59
2019-05-14T01:36:38.506Z,1019.61
2019-05-14T01:37:38.493Z,1019.60
2019-05-14T01:38:38.524Z,1019.53
2019-05-14T01:39:38.480Z,1019.54
2019-05-14T01:40:38.474Z,1019.59
2019-05-14T01:41:38.444Z,1019.50
2019-05-14T01:42:38.443Z,1019.54
2019-05-14T01:43:38.432Z,1019.47
2019-05-14T01:44:38.421Z,1019.45
2019-05-14T01:45:38.407Z,1019.45
2019-05-14T01:46:38.414Z,1019.42
2019-05-14T01:47:38.390Z,1019.37
2019-05-14T01:48:38.378Z,1019.39
2019-05-14T01:49:38.462Z,1019.27
2019-05-14T01:50:38.363Z,1019.32
2019-05-14T01:51:38.363Z,1019.34
2019-05-14T01:52:38.380Z,1019.32
2019-05-14T01:53:38.325Z,1019.35
2019-05-14T01:54:38.303Z,1019.38
2019-05-14T01:55:38.344Z,1019.42
2019-05-14T01:56:38.298Z,1019.45
2019-05-14T01:57:38.277Z,1019.48
2019-05-14T01:58:38.273Z,1019.54
2019-05-14T01:59:45.747Z,1019.55
2019-05-14T02:00:38.248Z,1019.58
2019-05-14T02:01:38.239Z,1019.67
2019-05-14T02:02:38.267Z,1019.72
2019-05-14T02:03:38.208Z,1019.70
2019-05-14T02:04:38.215Z,1019.76
2019-05-14T02:05:38.187Z,1019.73
2019-05-14T02:06:38.180Z,1019.72
2019-05-14T02:07:38.210Z,1019.73
2019-05-14T02:08:38.169Z,1019.70
2019-05-14T02:09:38.151Z,1019.71
2019-05-14T02:10:38.135Z,1019.74
2019-05-14T02:11:38.177Z,1019.68
2019-05-14T02:12:38.134Z,1019.64
2019-05-14T02:13:38.106Z,1019.62
2019-05-14T02:14:38.096Z,1019.66
2019-05-14T02:15:40.626Z,1019.64
2019-05-14T02:16:38.075Z,1019.71
2019-05-14T02:17:38.072Z,1019.66
2019-05-14T02:18:38.067Z,1019.74
2019-05-14T02:19:38.075Z,1019.67
2019-05-14T02:20:38.026Z,1019.75
2019-05-14T02:21:38.020Z,1019.69
2019-05-14T02:22:38.013Z,1019.69
2019-05-14T02:23:37.999Z,1019.72
2019-05-14T02:24:37.989Z,1019.66
2019-05-14T02:25:37.989Z,1019.62
2019-05-14T02:26:37.972Z,1019.57
2019-05-14T02:27:37.953Z,1019.53
2019-05-14T02:28:37.941Z,1019.53
2019-05-14T02:29:37.997Z,1019.56
2019-05-14T02:30:48.055Z,1019.52
2019-05-14T02:31:45.408Z,1019.60
2019-05-14T02:32:40.499Z,1019.52
2019-05-14T02:33:39.654Z,1019.60
2019-05-14T02:34:39.907Z,1019.58
2019-05-14T02:35:39.805Z,1019.62
2019-05-14T02:36:39.971Z,1019.64
2019-05-14T02:37:40.129Z,1019.71
2019-05-14T02:38:38.907Z,1019.74
2019-05-14T02:39:40.552Z,1019.72
2019-05-14T02:40:40.381Z,1019.65
2019-05-14T02:41:39.186Z,1019.68
2019-05-14T02:42:40.175Z,1019.62
2019-05-14T02:43:40.750Z,1019.66
2019-05-14T02:44:40.653Z,1019.58
2019-05-14T02:45:50.932Z,1019.57
2019-05-14T02:46:40.337Z,1019.57
2019-05-14T02:47:39.584Z,1019.54
2019-05-14T02:48:40.254Z,1019.54
2019-05-14T02:49:39.837Z,1019.58
2019-05-14T02:50:39.627Z,1019.55
2019-05-14T02:51:39.103Z,1019.55
2019-05-14T02:52:40.398Z,1019.60
2019-05-14T02:53:39.095Z,1019.62
2019-05-14T02:54:40.348Z,1019.62
2019-05-14T02:55:39.029Z,1019.58
2019-05-14T02:56:40.209Z,1019.65
2019-05-14T02:57:39.376Z,1019.62
2019-05-14T02:58:40.185Z,1019.63
2019-05-14T02:59:39.420Z,1019.63
2019-05-14T03:00:40.688Z,1019.63
2019-05-14T03:01:40.554Z,1019.59
2019-05-14T03:02:40.433Z,1019.56
2019-05-14T03:03:49.572Z,1019.56
2019-05-14T03:04:39.452Z,1019.52
2019-05-14T03:05:40.134Z,1019.59
2019-05-14T03:06:39.540Z,1019.55
2019-05-14T03:07:39.366Z,1019.58
2019-05-14T03:08:38.994Z,1019.64
2019-05-14T03:09:40.372Z,1019.55
2019-05-14T03:10:40.323Z,1019.59
2019-05-14T03:11:40.305Z,1019.57
2019-05-14T03:12:39.641Z,1019.55
2019-05-14T03:13:40.021Z,1019.60
2019-05-14T03:14:39.541Z,1019.53
2019-05-14T03:15:39.120Z,1019.58
2019-05-14T03:16:40.227Z,1019.57
2019-05-14T03:17:40.424Z,1019.61
2019-05-14T03:18:39.584Z,1019.59
2019-05-14T03:19:40.312Z,1019.62
2019-05-14T03:20:39.000Z,1019.60
2019-05-14T03:21:39.600Z,1019.55
2019-05-14T03:22:46.418Z,1019.53
2019-05-14T03:23:39.197Z,1019.50
2019-05-14T03:24:39.662Z,1019.51
2019-05-14T03:25:40.036Z,1019.50
2019-05-14T03:26:39.876Z,1019.55
2019-05-14T03:27:40.299Z,1019.59
2019-05-14T03:28:39.850Z,1019.58
2019-05-14T03:29:39.951Z,1019.60
2019-05-14T03:30:42.122Z,1019.64
2019-05-14T03:31:42.911Z,1019.67
2019-05-14T03:32:42.283Z,1019.38
2019-05-14T03:33:43.081Z,1019.46
2019-05-14T03:34:42.973Z,1019.52
2019-05-14T03:36:52.195Z,1019.44
2019-05-14T03:37:49.625Z,1019.48
2019-05-14T03:38:49.951Z,1019.51
2019-05-14T03:39:49.407Z,1019.62
2019-05-14T03:40:49.389Z,1019.57
2019-05-14T03:41:49.987Z,1019.62
2019-05-14T03:42:49.015Z,1019.68
2019-05-14T03:43:49.372Z,1019.63
2019-05-14T03:44:49.044Z,1019.67
2019-05-14T03:45:49.409Z,1019.65
2019-05-14T03:46:54.686Z,1019.62
2019-05-14T03:47:50.337Z,1019.64
2019-05-14T03:48:49.327Z,1019.57
2019-05-14T03:49:49.716Z,1019.59
2019-05-14T03:50:49.599Z,1019.61
2019-05-14T03:51:49.459Z,1019.60
2019-05-14T03:52:49.561Z,1019.65
2019-05-14T03:54:00.652Z,1019.52
2019-05-14T03:54:49.683Z,1019.61
2019-05-14T03:55:49.991Z,1019.56
2019-05-14T03:56:49.636Z,1019.53
2019-05-14T03:57:49.750Z,1019.58
2019-05-14T03:58:49.482Z,1019.56
2019-05-14T03:59:49.627Z,1019.70
2019-05-14T04:00:50.074Z,1019.65
2019-05-14T04:01:50.708Z,1019.65
2019-05-14T04:02:49.106Z,1019.71
2019-05-14T04:03:50.048Z,1019.64
2019-05-14T04:04:49.834Z,1019.71
2019-05-14T04:05:49.321Z,1019.67
2019-05-14T04:06:49.760Z,1019.69
2019-05-14T04:07:49.930Z,1019.65
2019-05-14T04:08:54.139Z,1019.59
2019-05-14T04:09:49.378Z,1019.68
2019-05-14T04:10:53.474Z,1019.64
2019-05-14T04:11:50.190Z,1019.66
2019-05-14T04:12:49.220Z,1019.60
2019-05-14T04:13:49.450Z,1019.67
2019-05-14T04:14:49.946Z,1019.66
2019-05-14T04:15:49.429Z,1019.69
2019-05-14T04:17:01.458Z,1019.60
2019-05-14T04:17:50.129Z,1019.73
2019-05-14T04:18:50.108Z,1019.63
2019-05-14T04:19:49.301Z,1019.68
2019-05-14T04:20:49.793Z,1019.57
2019-05-14T04:21:49.009Z,1019.60
2019-05-14T04:22:49.737Z,1019.60
2019-05-14T04:23:50.417Z,1019.61
2019-05-14T04:24:49.625Z,1019.57
2019-05-14T04:25:49.659Z,1019.54
2019-05-14T04:27:01.636Z,1019.53
2019-05-14T04:27:49.421Z,1019.43
2019-05-14T04:28:49.470Z,1019.41
2019-05-14T04:29:49.619Z,1019.42
2019-05-14T04:30:49.128Z,1019.41
2019-05-14T04:31:49.943Z,1019.42
2019-05-14T04:32:46.428Z,1019.37
2019-05-14T04:33:49.602Z,1019.45
2019-05-14T04:34:49.608Z,1019.38
2019-05-14T04:35:49.049Z,1019.42
2019-05-14T04:36:49.931Z,1019.40
2019-05-14T04:37:49.381Z,1019.56
2019-05-14T04:38:51.212Z,1019.57
2019-05-14T04:39:50.377Z,1019.61
2019-05-14T04:40:54.224Z,1019.62
2019-05-14T04:41:49.541Z,1019.59
2019-05-14T04:42:46.292Z,1019.70
2019-05-14T04:43:49.675Z,1019.77
2019-05-14T04:44:46.290Z,1019.70
2019-05-14T04:45:49.354Z,1019.71
2019-05-14T04:46:49.137Z,1019.68
2019-05-14T04:47:49.539Z,1019.71
2019-05-14T04:48:50.075Z,1019.65
2019-05-14T04:49:46.227Z,1019.71
2019-05-14T04:50:49.532Z,1019.70
2019-05-14T04:51:46.200Z,1019.71
2019-05-14T04:52:49.089Z,1019.79
2019-05-14T04:53:49.358Z,1019.80
2019-05-14T04:54:46.167Z,1019.85
2019-05-14T04:55:49.240Z,1019.84
2019-05-14T04:56:46.139Z,1019.84
2019-05-14T04:57:46.125Z,1019.92
2019-05-14T04:58:49.289Z,1019.89
2019-05-14T04:59:49.141Z,1019.94
2019-05-14T05:00:49.572Z,1019.90
2019-05-14T05:01:49.057Z,1019.91
2019-05-14T05:02:49.453Z,1019.91
2019-05-14T05:03:49.929Z,1019.93
2019-05-14T05:04:50.322Z,1019.92
2019-05-14T05:05:46.049Z,1019.96
2019-05-14T05:06:46.101Z,1019.97
2019-05-14T05:07:48.953Z,1020.00
2019-05-14T05:08:49.441Z,1019.96
2019-05-14T05:09:45.995Z,1019.97
2019-05-14T05:10:49.173Z,1020.02
2019-05-14T05:11:45.985Z,1019.96
2019-05-14T05:12:52.949Z,1019.95
2019-05-14T05:13:48.564Z,1019.95
2019-05-14T05:14:45.959Z,1019.93
2019-05-14T05:15:48.515Z,1019.96
2019-05-14T05:16:48.823Z,1019.92
2019-05-14T05:17:49.851Z,1019.94
2019-05-14T05:18:49.011Z,1019.86
2019-05-14T05:19:46.245Z,1019.85
2019-05-14T05:20:45.875Z,1019.87
2019-05-14T05:21:47.989Z,1019.87
2019-05-14T05:22:48.360Z,1019.82
2019-05-14T05:23:45.855Z,1019.86
2019-05-14T05:24:48.294Z,1019.87
2019-05-14T05:25:45.842Z,1019.75
2019-05-14T05:26:48.381Z,1019.77
2019-05-14T05:27:45.809Z,1019.78
2019-05-14T05:29:01.788Z,1019.81
2019-05-14T05:29:48.614Z,1019.90
2019-05-14T05:30:45.778Z,1019.79
2019-05-14T05:31:45.813Z,1019.79
2019-05-14T05:32:45.762Z,1019.79
2019-05-14T05:33:45.740Z,1019.79
2019-05-14T05:34:48.114Z,1019.84
2019-05-14T05:35:45.722Z,1019.79
2019-05-14T05:36:45.708Z,1019.81
2019-05-14T05:37:45.713Z,1019.83
2019-05-14T05:38:45.690Z,1019.82
2019-05-14T05:39:45.680Z,1019.88
2019-05-14T05:40:45.672Z,1019.87
2019-05-14T05:41:45.798Z,1019.81
2019-05-14T05:42:45.693Z,1019.90
2019-05-14T05:43:48.201Z,1019.93
2019-05-14T05:44:52.597Z,1019.95
2019-05-14T05:45:45.615Z,1019.92
2019-05-14T05:46:45.600Z,1019.99
2019-05-14T05:47:57.234Z,1019.89
2019-05-14T05:48:48.203Z,1019.96
2019-05-14T05:49:45.566Z,1019.98
2019-05-14T05:50:48.232Z,1019.96
2019-05-14T05:51:45.574Z,1019.97
2019-05-14T05:52:45.555Z,1019.97
2019-05-14T05:53:45.587Z,1019.95
2019-05-14T05:54:45.559Z,1019.95
2019-05-14T05:55:45.503Z,1020.00
2019-05-14T05:56:48.020Z,1019.98
2019-05-14T05:57:45.483Z,1020.00
2019-05-14T05:58:45.477Z,1019.96
2019-05-14T05:59:48.213Z,1020.01
2019-05-14T06:00:45.526Z,1020.01
2019-05-14T06:01:46.478Z,1019.99
2019-05-14T06:02:45.436Z,1019.92
2019-05-14T06:03:45.424Z,1019.89
2019-05-14T06:04:45.412Z,1019.88
2019-05-14T06:05:45.405Z,1019.95
2019-05-14T06:06:48.034Z,1019.83
2019-05-14T06:07:45.444Z,1019.87
2019-05-14T06:08:45.365Z,1019.90
2019-05-14T06:09:45.440Z,1019.87
2019-05-14T06:10:45.350Z,1019.86
2019-05-14T06:11:45.340Z,1019.95
2019-05-14T06:12:45.330Z,1020.00
2019-05-14T06:13:45.317Z,1019.98
2019-05-14T06:14:45.389Z,1020.04
2019-05-14T06:15:48.706Z,1020.04
2019-05-14T06:18:10.391Z,1019.98
2019-05-14T06:18:58.607Z,1019.99
2019-05-14T06:19:55.025Z,1019.98
2019-05-14T06:20:55.010Z,1020.01
2019-05-14T06:21:55.003Z,1020.06
2019-05-14T06:22:55.036Z,1020.08
2019-05-14T06:23:55.087Z,1020.11
2019-05-14T06:24:54.985Z,1020.16
2019-05-14T06:25:54.965Z,1020.09
2019-05-14T06:26:54.947Z,1020.18
2019-05-14T06:27:54.939Z,1020.20
2019-05-14T06:28:54.977Z,1020.21
2019-05-14T06:29:54.949Z,1020.18
2019-05-14T06:30:54.910Z,1020.16
2019-05-14T06:31:54.898Z,1020.16
2019-05-14T06:32:54.883Z,1020.20
2019-05-14T06:33:54.885Z,1020.16
2019-05-14T06:34:54.929Z,1020.21
2019-05-14T06:35:54.857Z,1020.19
2019-05-14T06:36:54.846Z,1020.26
2019-05-14T06:37:54.873Z,1020.25
2019-05-14T06:38:54.825Z,1020.26
2019-05-14T06:39:54.813Z,1020.16
2019-05-14T06:40:54.928Z,1020.18
2019-05-14T06:41:54.800Z,1020.16
2019-05-14T06:42:54.782Z,1020.21
2019-05-14T06:43:54.767Z,1020.17
2019-05-14T06:44:54.757Z,1020.26
2019-05-14T06:45:54.778Z,1020.18
2019-05-14T06:46:54.834Z,1020.20
2019-05-14T06:47:54.736Z,1020.24
2019-05-14T06:49:02.209Z,1020.29
2019-05-14T06:49:54.709Z,1020.23
2019-05-14T06:50:54.730Z,1020.26
2019-05-14T06:51:54.680Z,1020.24
2019-05-14T06:52:54.672Z,1020.24
2019-05-14T06:53:54.674Z,1020.32
2019-05-14T06:54:54.666Z,1020.35
2019-05-14T06:55:54.636Z,1020.29
2019-05-14T06:56:54.664Z,1020.23
2019-05-14T06:57:54.634Z,1020.26
2019-05-14T06:58:54.602Z,1020.28
2019-05-14T06:59:54.604Z,1020.28
2019-05-14T07:00:54.595Z,1020.27
2019-05-14T07:01:54.578Z,1020.37
2019-05-14T07:02:54.616Z,1020.36
2019-05-14T07:03:54.561Z,1020.32
2019-05-14T07:04:54.538Z,1020.30
2019-05-14T07:05:54.576Z,1020.30
2019-05-14T07:06:54.527Z,1020.36
2019-05-14T07:07:54.521Z,1020.23
2019-05-14T07:08:54.576Z,1020.28
2019-05-14T07:09:54.505Z,1020.31
2019-05-14T07:10:54.479Z,1020.26
2019-05-14T07:11:54.471Z,1020.21
2019-05-14T07:12:54.459Z,1020.24
2019-05-14T07:13:54.500Z,1020.21
2019-05-14T07:14:54.447Z,1020.18
2019-05-14T07:15:54.429Z,1020.18
2019-05-14T07:16:54.438Z,1020.10
2019-05-14T07:17:54.413Z,1020.08
2019-05-14T07:18:54.485Z,1020.13
2019-05-14T07:19:54.434Z,1020.20
2019-05-14T07:21:01.356Z,1020.15
2019-05-14T07:21:54.363Z,1020.13
2019-05-14T07:22:54.352Z,1020.13
2019-05-14T07:23:54.343Z,1020.14
2019-05-14T07:24:54.381Z,1020.12
2019-05-14T07:25:54.335Z,1020.14
2019-05-14T07:26:54.314Z,1020.10
2019-05-14T07:27:54.298Z,1020.13
2019-05-14T07:28:54.379Z,1020.13
2019-05-14T07:29:54.273Z,1020.17
2019-05-14T07:30:54.356Z,1020.16
2019-05-14T07:31:54.271Z,1020.18
2019-05-14T07:32:54.241Z,1020.21
2019-05-14T07:33:54.240Z,1020.24
2019-05-14T07:34:54.222Z,1020.21
2019-05-14T07:35:54.261Z,1020.28
2019-05-14T07:36:54.210Z,1020.18
2019-05-14T07:37:54.192Z,1020.11
2019-05-14T07:38:56.533Z,1020.15
2019-05-14T07:39:55.168Z,1020.24
2019-05-14T07:40:54.171Z,1020.16
2019-05-14T07:41:54.269Z,1020.28
2019-05-14T07:42:54.159Z,1020.23
2019-05-14T07:43:54.128Z,1020.16
2019-05-14T07:44:54.120Z,1020.16
2019-05-14T07:45:54.110Z,1020.14
2019-05-14T07:46:54.114Z,1020.26
2019-05-14T07:47:54.129Z,1020.21
2019-05-14T07:49:07.227Z,1020.16
2019-05-14T07:49:55.067Z,1020.20
2019-05-14T07:50:54.044Z,1020.16
2019-05-14T07:51:54.092Z,1020.13
2019-05-14T07:53:03.288Z,1020.13
2019-05-14T07:53:54.011Z,1020.19
2019-05-14T07:54:54.005Z,1020.18
2019-05-14T07:55:53.990Z,1020.16
2019-05-14T07:56:53.983Z,1020.21
2019-05-14T07:57:53.994Z,1020.22
2019-05-14T07:58:53.992Z,1020.20
2019-05-14T07:59:53.945Z,1020.22
2019-05-14T08:00:53.939Z,1020.19
2019-05-14T08:01:53.931Z,1020.22
2019-05-14T08:02:53.923Z,1020.31
2019-05-14T08:03:54.000Z,1020.19
2019-05-14T08:04:53.908Z,1020.24
2019-05-14T08:05:53.883Z,1020.20
2019-05-14T08:06:53.884Z,1020.26
2019-05-14T08:07:53.862Z,1020.15
2019-05-14T08:08:53.854Z,1020.18
2019-05-14T08:09:53.878Z,1020.12
2019-05-14T08:10:53.855Z,1020.19
2019-05-14T08:11:53.827Z,1020.15
2019-05-14T08:12:53.820Z,1020.19
2019-05-14T08:13:53.802Z,1020.15
2019-05-14T08:15:11.010Z,1020.19
2019-05-14T08:15:54.774Z,1020.17
2019-05-14T08:16:53.765Z,1020.14
2019-05-14T08:17:53.752Z,1020.17
2019-05-14T08:18:53.742Z,1020.15
2019-05-14T08:19:53.787Z,1020.16
2019-05-14T08:20:53.734Z,1020.15
2019-05-14T08:21:53.715Z,1019.99
2019-05-14T08:22:53.749Z,1020.22
2019-05-14T08:23:53.708Z,1020.14
2019-05-14T08:25:00.846Z,1020.24
2019-05-14T08:25:53.670Z,1020.08
2019-05-14T08:26:53.659Z,1020.22
2019-05-14T08:27:53.645Z,1020.01
2019-05-14T08:28:53.631Z,1020.08
2019-05-14T08:29:53.633Z,1020.04
2019-05-14T08:30:53.632Z,1020.02
2019-05-14T08:31:53.598Z,1019.98
2019-05-14T08:32:53.607Z,1020.15
2019-05-14T08:33:53.655Z,1020.17
2019-05-14T08:34:53.568Z,1020.14
2019-05-14T08:35:53.617Z,1020.14
2019-05-14T08:36:53.547Z,1020.10
2019-05-14T08:38:07.485Z,1020.17
2019-05-14T08:38:54.539Z,1020.10
2019-05-14T08:39:53.558Z,1020.29
2019-05-14T08:40:53.507Z,1020.18
2019-05-14T08:41:59.553Z,1020.16
2019-05-14T08:42:54.550Z,1020.29
2019-05-14T08:43:53.473Z,1020.30
2019-05-14T08:44:53.460Z,1020.30
2019-05-14T08:45:53.453Z,1020.30
2019-05-14T08:46:53.443Z,1020.20
2019-05-14T08:47:53.446Z,1020.20
2019-05-14T08:48:53.469Z,1020.17
2019-05-14T08:49:53.407Z,1020.23
2019-05-14T08:50:53.399Z,1020.17
2019-05-14T08:51:53.436Z,1020.05
2019-05-14T08:52:53.383Z,1020.04
2019-05-14T08:53:53.375Z,1020.09
2019-05-14T08:55:05.612Z,1020.07
2019-05-14T08:55:54.369Z,1020.13
2019-05-14T08:57:00.321Z,1020.21
2019-05-14T08:57:53.456Z,1020.14
2019-05-14T08:58:53.309Z,1020.07
2019-05-14T08:59:53.297Z,1020.03
2019-05-14T09:00:53.292Z,1020.11
2019-05-14T09:02:04.804Z,1019.96
2019-05-14T09:02:54.326Z,1019.99
2019-05-14T09:03:53.267Z,1020.05
2019-05-14T09:04:55.003Z,1020.05
2019-05-14T09:05:53.273Z,1019.98
2019-05-14T09:06:53.264Z,1019.94
2019-05-14T09:07:53.211Z,1019.97
2019-05-14T09:08:53.286Z,1019.85
2019-05-14T09:09:53.198Z,1019.94
2019-05-14T09:10:53.190Z,1020.01
2019-05-14T09:11:53.190Z,1020.00
2019-05-14T09:12:53.171Z,1019.97
2019-05-14T09:13:53.158Z,1019.80
2019-05-14T09:14:53.270Z,1019.81
2019-05-14T09:15:53.129Z,1019.77
2019-05-14T09:16:53.153Z,1019.77
2019-05-14T09:17:53.109Z,1019.83
2019-05-14T09:19:00.907Z,1019.85
2019-05-14T09:20:02.006Z,1019.82
2019-05-14T09:20:54.106Z,1019.86
2019-05-14T09:21:53.067Z,1019.89
2019-05-14T09:22:53.049Z,1019.81
2019-05-14T09:23:53.048Z,1019.80
2019-05-14T09:24:53.031Z,1019.81
2019-05-14T09:25:53.468Z,1019.84
2019-05-14T09:26:53.011Z,1019.83
2019-05-14T09:27:53.047Z,1019.83
2019-05-14T09:29:17.916Z,1019.91
2019-05-14T09:29:53.971Z,1019.81
2019-05-14T09:30:52.972Z,1019.83
2019-05-14T09:31:52.956Z,1019.86
2019-05-14T09:32:52.944Z,1019.81
2019-05-14T09:33:52.941Z,1019.80
2019-05-14T09:34:52.930Z,1019.80
2019-05-14T09:36:09.828Z,1019.84
2019-05-14T09:36:53.915Z,1019.85
2019-05-14T09:37:52.891Z,1019.75
2019-05-14T09:38:52.980Z,1019.74
2019-05-14T09:39:52.867Z,1019.66
2019-05-14T09:41:07.120Z,1019.64
2019-05-14T09:41:53.956Z,1019.66
2019-05-14T09:42:52.841Z,1019.71
2019-05-14T09:43:52.823Z,1019.72
2019-05-14T09:44:52.812Z,1019.76
2019-05-14T09:45:52.804Z,1019.72
2019-05-14T09:46:52.841Z,1019.73
2019-05-14T09:47:52.806Z,1019.79
2019-05-14T09:48:52.852Z,1019.84
2019-05-14T09:49:52.773Z,1019.81
2019-05-14T09:50:52.752Z,1019.78
2019-05-14T09:51:52.758Z,1019.73
2019-05-14T09:52:52.730Z,1019.81
2019-05-14T09:53:52.732Z,1019.89
2019-05-14T09:54:52.719Z,1019.78
2019-05-14T09:55:52.695Z,1019.81
2019-05-14T09:56:52.750Z,1019.84
2019-05-14T09:57:52.742Z,1019.77
2019-05-14T09:58:52.662Z,1019.76
2019-05-14T09:59:52.710Z,1019.87
2019-05-14T10:00:59.622Z,1019.81
2019-05-14T10:01:52.633Z,1019.79
2019-05-14T10:02:52.631Z,1019.70
2019-05-14T10:03:52.631Z,1019.78
2019-05-14T10:04:52.595Z,1019.75
2019-05-14T10:05:52.588Z,1019.74
2019-05-14T10:06:52.578Z,1019.84
2019-05-14T10:07:52.598Z,1019.82
2019-05-14T10:08:52.663Z,1019.76
2019-05-14T10:09:52.548Z,1019.82
2019-05-14T10:10:52.537Z,1019.68
2019-05-14T10:11:52.549Z,1019.67
2019-05-14T10:12:57.025Z,1019.69
2019-05-14T10:13:53.507Z,1019.66
2019-05-14T10:14:52.505Z,1019.63
2019-05-14T10:15:52.492Z,1019.67
2019-05-14T10:16:52.511Z,1019.77
2019-05-14T10:17:52.464Z,1019.61
2019-05-14T10:18:53.047Z,1019.69
2019-05-14T10:19:52.444Z,1019.65
2019-05-14T10:20:52.431Z,1019.76
2019-05-14T10:21:52.416Z,1019.73
2019-05-14T10:22:52.465Z,1019.66
2019-05-14T10:23:52.390Z,1019.67
2019-05-14T10:24:52.385Z,1019.69
2019-05-14T10:25:52.398Z,1019.69
2019-05-14T10:26:52.459Z,1019.73
2019-05-14T10:27:52.344Z,1019.74
2019-05-14T10:28:52.333Z,1019.73
2019-05-14T10:29:52.322Z,1019.72
2019-05-14T10:30:52.396Z,1019.72
2019-05-14T10:31:52.315Z,1019.82
2019-05-14T10:33:09.612Z,1019.88
2019-05-14T10:33:53.285Z,1019.80
2019-05-14T10:34:52.285Z,1019.80
2019-05-14T10:35:52.290Z,1019.74
2019-05-14T10:36:52.253Z,1019.80
2019-05-14T10:37:54.321Z,1019.75
2019-05-14T10:38:52.230Z,1019.78
2019-05-14T10:39:52.225Z,1019.76
2019-05-14T10:40:52.215Z,1019.84
2019-05-14T10:41:52.322Z,1019.74
2019-05-14T10:42:52.189Z,1019.72
2019-05-14T10:43:52.178Z,1019.71
2019-05-14T10:44:52.204Z,1019.67
2019-05-14T10:45:52.158Z,1019.69
2019-05-14T10:46:52.144Z,1019.64
2019-05-14T10:47:52.152Z,1019.67
2019-05-14T10:48:52.124Z,1019.70
2019-05-14T10:49:52.147Z,1019.69
2019-05-14T10:51:02.401Z,1019.56
2019-05-14T10:51:53.111Z,1019.64
2019-05-14T10:52:52.094Z,1019.68
2019-05-14T10:53:52.072Z,1019.61
2019-05-14T10:54:55.737Z,1019.66
2019-05-14T10:55:52.089Z,1019.59
2019-05-14T10:56:52.032Z,1019.58
2019-05-14T10:57:54.352Z,1019.56
2019-05-14T10:58:52.036Z,1019.56
2019-05-14T10:59:52.000Z,1019.65
2019-05-14T11:00:51.996Z,1019.64
2019-05-14T11:01:52.038Z,1019.60
2019-05-14T11:02:52.020Z,1019.54
2019-05-14T11:03:51.972Z,1019.62
2019-05-14T11:04:58.930Z,1019.48
2019-05-14T11:05:51.933Z,1019.54
2019-05-14T11:06:51.927Z,1019.50
2019-05-14T11:07:51.913Z,1019.53
2019-05-14T11:08:51.917Z,1019.50
2019-05-14T11:09:51.901Z,1019.52
2019-05-14T11:10:51.991Z,1019.56
2019-05-14T11:11:51.875Z,1019.48
2019-05-14T11:12:55.025Z,1019.46
2019-05-14T11:13:51.878Z,1019.47
2019-05-14T11:14:51.841Z,1019.36
2019-05-14T11:15:51.828Z,1019.43
2019-05-14T11:16:51.847Z,1019.50
2019-05-14T11:17:51.807Z,1019.46
2019-05-14T11:18:51.833Z,1019.39
2019-05-14T11:19:51.827Z,1019.46
2019-05-14T11:20:51.910Z,1019.36
2019-05-14T11:21:51.764Z,1019.36
2019-05-14T11:22:51.801Z,1019.48
2019-05-14T11:23:51.783Z,1019.38
2019-05-14T11:24:51.887Z,1019.49
2019-05-14T11:25:51.737Z,1019.44
2019-05-14T11:26:51.715Z,1019.33
2019-05-14T11:27:51.698Z,1019.42
2019-05-14T11:28:51.727Z,1019.42
2019-05-14T11:29:51.740Z,1019.43
2019-05-14T11:30:51.718Z,1019.42
2019-05-14T11:31:51.658Z,1019.42
2019-05-14T11:32:51.656Z,1019.60
2019-05-14T11:33:51.641Z,1019.39
2019-05-14T11:34:51.629Z,1019.36
2019-05-14T11:35:51.681Z,1019.36
2019-05-14T11:36:59.196Z,1019.30
2019-05-14T11:37:51.589Z,1019.30
2019-05-14T11:38:51.577Z,1019.35
2019-05-14T11:39:51.569Z,1019.31
2019-05-14T11:40:51.562Z,1019.26
2019-05-14T11:41:51.576Z,1019.24
2019-05-14T11:42:51.533Z,1019.30
2019-05-14T11:43:51.583Z,1019.39
2019-05-14T11:44:51.520Z,1019.35
2019-05-14T11:45:51.512Z,1019.45
2019-05-14T11:46:57.685Z,1019.40
2019-05-14T11:47:52.488Z,1019.31
2019-05-14T11:48:51.511Z,1019.23
2019-05-14T11:49:51.476Z,1019.22
2019-05-14T11:50:51.452Z,1019.24
2019-05-14T11:52:06.888Z,1019.28
2019-05-14T11:52:52.496Z,1019.25
2019-05-14T11:53:51.460Z,1019.26
2019-05-14T11:54:51.410Z,1019.24
2019-05-14T11:55:51.398Z,1019.23
2019-05-14T11:56:51.383Z,1019.30
2019-05-14T11:57:51.374Z,1019.27
2019-05-14T11:58:51.380Z,1019.22
2019-05-14T11:59:51.387Z,1019.28
2019-05-14T12:00:51.336Z,1019.22
2019-05-14T12:01:54.832Z,1019.21
2019-05-14T12:02:51.322Z,1019.10
2019-05-14T12:03:51.313Z,1019.16
2019-05-14T12:04:51.294Z,1019.11
2019-05-14T12:05:51.336Z,1019.13
2019-05-14T12:06:51.277Z,1019.12
2019-05-14T12:07:51.280Z,1019.19